Time;durP1;ratioP1;P1;durP2;ratioP2;P2;SDS_P1;SDS_P2;PMS_P1;PMS_P2;Temp;Humidity;BMP_temperature;BMP_pressure;BME280_temperature;BME280_humidity;BME280_pressure;Samples;Min_cycle;Max_cycle;Signal;HPM_P1;HPM_P2
2023/09/04 00:07:00;;;;;;;2.53;2.00;;;12.40;99.90;;;;;;5034751;23;20324;-87
2023/09/04 00:09:26;;;;;;;3.37;2.60;;;12.40;99.90;;;;;;5009405;28;20672;-88
2023/09/04 00:11:51;;;;;;;3.40;1.97;;;12.50;99.90;;;;;;5010421;28;20306;-87
2023/09/04 00:14:17;;;;;;;2.93;2.00;;;12.50;99.90;;;;;;5027176;28;20601;-88
2023/09/04 00:16:43;;;;;;;3.40;3.10;;;12.50;99.90;;;;;;5010233;28;20670;-88
2023/09/04 00:19:09;;;;;;;2.93;2.13;;;12.50;99.90;;;;;;5021886;28;20219;-88
2023/09/04 00:21:35;;;;;;;2.17;1.47;;;12.40;99.90;;;;;;5019517;28;20222;-87
2023/09/04 00:24:00;;;;;;;2.23;1.67;;;12.20;99.90;;;;;;5009486;28;20689;-88
2023/09/04 00:26:27;;;;;;;1.90;1.20;;;12.10;99.90;;;;;;5009678;28;20219;-87
2023/09/04 00:28:53;;;;;;;1.70;1.27;;;12.10;99.90;;;;;;5027161;28;20187;-87
2023/09/04 00:31:18;;;;;;;5.33;1.67;;;11.90;99.90;;;;;;5021869;28;20215;-87
2023/09/04 00:33:44;;;;;;;1.07;1.07;;;11.80;99.90;;;;;;4988964;28;20228;-87
2023/09/04 00:36:10;;;;;;;1.27;1.17;;;11.80;99.90;;;;;;5009218;28;20210;-87
2023/09/04 00:38:36;;;;;;;1.17;1.03;;;11.80;99.90;;;;;;4993785;28;20706;-88
2023/09/04 00:41:02;;;;;;;5.77;1.27;;;11.80;99.90;;;;;;4993694;28;20187;-87
2023/09/04 00:43:35;;;;;;;5.60;1.10;;;11.70;99.90;;;;;;4993445;28;20261;-87
2023/09/04 00:46:54;;;;;;;7.37;0.90;;;11.80;99.90;;;;;;5026129;28;20249;-87
2023/09/04 00:49:20;;;;;;;10.97;1.23;;;11.60;99.90;;;;;;5022700;28;20314;-87
2023/09/04 00:51:46;;;;;;;16.40;1.73;;;11.50;99.90;;;;;;4991003;28;20262;-87
2023/09/04 00:54:14;;;;;;;26.30;2.60;;;11.60;99.90;;;;;;5005470;28;21341;-87
2023/09/04 00:56:40;;;;;;;7.17;1.37;;;11.60;99.90;;;;;;5005033;28;20235;-87
2023/09/04 00:59:06;;;;;;;16.07;1.83;;;11.80;99.90;;;;;;4997264;28;20199;-87
2023/09/04 01:01:32;;;;;;;31.73;2.20;;;11.90;99.90;;;;;;5007173;28;20200;-87
2023/09/04 01:03:58;;;;;;;26.83;1.70;;;11.90;99.90;;;;;;5006157;28;20226;-87
2023/09/04 01:06:24;;;;;;;3.77;2.00;;;11.80;99.90;;;;;;5009649;28;20852;-87
2023/09/04 01:08:50;;;;;;;1.47;1.00;;;11.80;99.90;;;;;;5010404;28;20294;-87
2023/09/04 01:11:29;;;;;;;1.60;1.50;;;11.90;99.90;;;;;;5019775;28;20231;-87
2023/09/04 01:13:56;;;;;;;36.73;4.03;;;11.90;99.90;;;;;;5009569;28;20217;-87
2023/09/04 01:16:23;;;;;;;38.97;2.67;;;12.00;99.90;;;;;;4984612;28;20242;-88
2023/09/04 01:18:50;;;;;;;27.17;3.23;;;12.00;99.90;;;;;;5003295;28;20255;-88
2023/09/04 01:21:17;;;;;;;65.63;2.80;;;11.80;99.90;;;;;;5009310;28;20227;-88
2023/09/04 01:23:42;;;;;;;3.30;1.53;;;11.70;99.90;;;;;;5008625;28;20339;-88
2023/09/04 01:26:32;;;;;;;2.30;2.10;;;11.60;99.90;;;;;;4993569;28;20306;-87
2023/09/04 01:29:03;;;;;;;20.60;2.17;;;11.60;99.90;;;;;;5025132;28;20258;-87
2023/09/04 01:31:35;;;;;;;31.13;2.33;;;11.60;99.90;;;;;;5025775;28;20215;-87
2023/09/04 01:34:08;;;;;;;3.60;1.73;;;11.60;99.90;;;;;;5009328;28;20218;-87
2023/09/04 01:36:36;;;;;;;9.20;1.73;;;11.70;99.90;;;;;;5009097;28;20230;-87
2023/09/04 01:39:03;;;;;;;10.80;1.63;;;11.60;99.90;;;;;;5030161;28;20245;-87
2023/09/04 01:41:28;;;;;;;2.43;1.20;;;11.50;99.90;;;;;;5012781;28;20241;-87
2023/09/04 01:43:54;;;;;;;8.93;2.07;;;11.20;99.90;;;;;;5012760;28;20222;-88
2023/09/04 01:46:21;;;;;;;3.53;1.10;;;11.20;99.90;;;;;;5028024;28;20267;-87
2023/09/04 01:48:48;;;;;;;13.90;1.27;;;11.30;99.90;;;;;;5028929;28;20214;-87
2023/09/04 01:51:15;;;;;;;3.33;1.47;;;11.30;99.90;;;;;;5028723;28;20261;-88
2023/09/04 01:53:42;;;;;;;11.07;1.40;;;11.40;99.90;;;;;;5024613;28;20225;-87
2023/09/04 01:56:07;;;;;;;9.53;2.03;;;11.30;99.90;;;;;;5024147;28;20187;-88
2023/09/04 01:58:33;;;;;;;37.03;2.23;;;11.40;99.90;;;;;;5009916;28;20233;-88
2023/09/04 02:00:59;;;;;;;2.80;1.63;;;11.50;99.90;;;;;;5008957;28;21084;-88
2023/09/04 02:03:25;;;;;;;44.63;2.70;;;11.50;99.90;;;;;;5008920;28;20241;-87
2023/09/04 02:05:51;;;;;;;4.63;2.23;;;11.60;99.90;;;;;;5008840;28;20230;-88
2023/09/04 02:08:16;;;;;;;13.20;2.13;;;11.70;99.90;;;;;;5007853;28;20230;-87
2023/09/04 02:10:42;;;;;;;9.87;1.13;;;11.60;99.90;;;;;;5008731;28;20183;-88
2023/09/04 02:13:08;;;;;;;15.37;1.30;;;11.70;99.90;;;;;;4992367;28;20230;-88
2023/09/04 02:15:35;;;;;;;2.57;1.73;;;11.80;99.90;;;;;;4983089;28;20701;-88
2023/09/04 02:18:04;;;;;;;30.03;3.03;;;11.80;99.90;;;;;;5017429;28;20268;-88
2023/09/04 02:20:30;;;;;;;4.20;2.33;;;11.90;99.90;;;;;;5012202;28;20207;-88
2023/09/04 02:22:57;;;;;;;59.10;3.50;;;11.90;99.90;;;;;;4995291;28;20317;-87
2023/09/04 02:25:24;;;;;;;25.70;2.33;;;11.70;99.90;;;;;;5028688;28;20762;-88
2023/09/04 02:27:50;;;;;;;32.30;2.40;;;11.60;99.90;;;;;;5012007;28;20211;-88
2023/09/04 02:30:16;;;;;;;40.27;2.90;;;11.60;99.90;;;;;;5011927;28;20703;-87
2023/09/04 02:32:43;;;;;;;2.73;1.87;;;11.50;99.90;;;;;;5010978;28;20219;-87
2023/09/04 02:35:09;;;;;;;1.53;1.07;;;11.50;99.90;;;;;;5012174;28;20288;-88
2023/09/04 02:37:35;;;;;;;1.53;1.17;;;11.50;99.90;;;;;;5011794;28;20670;-87
2023/09/04 02:40:01;;;;;;;62.80;2.80;;;11.50;99.90;;;;;;5010936;28;20217;-88
2023/09/04 02:42:30;;;;;;;5.07;1.40;;;11.50;99.90;;;;;;5011696;28;20242;-87
2023/09/04 02:44:55;;;;;;;1.67;1.30;;;11.50;99.90;;;;;;5011246;28;20277;-88
2023/09/04 02:47:21;;;;;;;1.00;0.90;;;11.40;99.90;;;;;;4995368;28;20270;-88
2023/09/04 02:49:47;;;;;;;1.40;1.17;;;11.40;99.90;;;;;;4995702;28;20187;-88
2023/09/04 02:52:13;;;;;;;1.60;1.23;;;11.30;99.90;;;;;;5011702;28;20236;-87
2023/09/04 02:54:38;;;;;;;0.90;0.90;;;11.30;99.90;;;;;;5027591;28;20213;-87
2023/09/04 02:57:04;;;;;;;0.70;0.70;;;11.30;99.90;;;;;;5011428;28;20226;-88
2023/09/04 02:59:33;;;;;;;1.03;1.03;;;11.20;99.90;;;;;;5013368;28;20222;-87
2023/09/04 03:01:59;;;;;;;0.80;0.80;;;11.20;99.90;;;;;;5044079;28;20237;-87
2023/09/04 03:04:25;;;;;;;7.63;1.60;;;11.30;99.90;;;;;;5010875;28;21077;-89
2023/09/04 03:06:50;;;;;;;0.80;0.70;;;11.30;99.90;;;;;;5011056;28;20318;-87
2023/09/04 03:09:16;;;;;;;1.03;0.93;;;11.20;99.90;;;;;;4994810;28;20226;-87
2023/09/04 03:11:42;;;;;;;0.70;0.70;;;11.20;99.90;;;;;;5010977;28;20223;-87
2023/09/04 03:14:08;;;;;;;2.50;2.13;;;11.30;99.90;;;;;;4995164;28;20675;-87
2023/09/04 03:16:33;;;;;;;1.73;1.40;;;11.40;99.90;;;;;;4995497;28;20213;-88
2023/09/04 03:18:59;;;;;;;1.00;0.87;;;11.60;99.90;;;;;;5028174;28;21155;-88
2023/09/04 03:21:25;;;;;;;1.40;1.20;;;11.60;99.90;;;;;;5002571;28;20559;-88
2023/09/04 03:23:54;;;;;;;1.77;1.53;;;11.50;99.90;;;;;;4994265;28;20579;-87
2023/09/04 03:26:19;;;;;;;5.80;2.20;;;11.40;99.90;;;;;;5011242;28;20276;-88
2023/09/04 03:28:45;;;;;;;31.83;3.30;;;11.20;99.90;;;;;;5011080;28;20576;-89
2023/09/04 03:31:15;;;;;;;32.13;3.00;;;11.20;99.90;;;;;;5010459;28;20218;-88
2023/09/04 03:33:41;;;;;;;7.30;2.67;;;11.10;99.90;;;;;;5026617;28;20912;-88
2023/09/04 03:36:09;;;;;;;38.93;3.00;;;10.90;99.90;;;;;;4994743;28;21279;-87
2023/09/04 03:38:35;;;;;;;9.87;1.80;;;10.70;99.90;;;;;;5028036;28;20218;-88
2023/09/04 03:41:01;;;;;;;36.57;2.73;;;10.60;99.90;;;;;;5010526;28;20186;-88
2023/09/04 03:43:28;;;;;;;22.33;2.30;;;10.70;99.90;;;;;;4994557;28;20277;-87
2023/09/04 03:45:54;;;;;;;24.97;1.83;;;10.80;99.90;;;;;;5010672;28;20284;-88
2023/09/04 03:48:20;;;;;;;17.10;2.47;;;10.80;99.90;;;;;;5010126;28;20306;-88
2023/09/04 03:50:46;;;;;;;8.33;1.90;;;10.80;99.90;;;;;;5014186;28;20302;-88
2023/09/04 03:53:12;;;;;;;3.87;2.07;;;10.80;99.90;;;;;;5027221;28;20881;-88
2023/09/04 03:55:37;;;;;;;1.47;1.37;;;10.70;99.90;;;;;;5010929;28;20186;-88
2023/09/04 03:58:03;;;;;;;3.03;1.17;;;10.80;99.90;;;;;;5009787;28;20238;-88
2023/09/04 04:00:30;;;;;;;0.97;0.90;;;10.80;99.90;;;;;;5026392;28;20206;-88
2023/09/04 04:02:56;;;;;;;10.30;1.20;;;10.70;99.90;;;;;;4994756;28;20305;-88
2023/09/04 04:05:24;;;;;;;1.13;0.90;;;10.60;99.90;;;;;;5010583;28;20210;-88
2023/09/04 04:07:50;;;;;;;1.23;1.13;;;10.60;99.90;;;;;;5026850;28;20658;-87
2023/09/04 04:10:16;;;;;;;1.20;1.10;;;10.60;99.90;;;;;;5009967;28;20234;-87
2023/09/04 04:12:42;;;;;;;1.23;1.17;;;10.60;99.90;;;;;;5026497;28;20236;-87
2023/09/04 04:15:08;;;;;;;1.20;1.10;;;10.60;99.90;;;;;;5009363;28;20218;-87
2023/09/04 04:17:35;;;;;;;9.90;1.20;;;10.60;99.90;;;;;;5009689;28;20284;-88
2023/09/04 04:20:12;;;;;;;34.87;2.57;;;10.60;99.90;;;;;;5026388;28;20588;-88
2023/09/04 04:22:39;;;;;;;12.07;2.17;;;10.50;99.90;;;;;;5011577;28;20183;-88
2023/09/04 04:25:05;;;;;;;24.80;2.23;;;10.50;99.90;;;;;;5026149;28;21300;-87
2023/09/04 04:27:31;;;;;;;14.83;1.37;;;10.60;99.90;;;;;;5025969;28;20230;-87
2023/09/04 04:29:59;;;;;;;1.23;1.13;;;10.60;99.90;;;;;;4993734;28;20270;-87
2023/09/04 04:32:25;;;;;;;16.73;2.07;;;10.60;99.90;;;;;;5026254;28;20683;-87
2023/09/04 04:34:51;;;;;;;1.50;1.40;;;10.60;99.90;;;;;;5010383;28;20195;-87
2023/09/04 04:37:17;;;;;;;1.00;1.00;;;10.50;99.90;;;;;;4993636;28;20215;-87
2023/09/04 04:39:43;;;;;;;1.40;1.00;;;10.50;99.90;;;;;;5010758;28;20214;-88
2023/09/04 04:42:09;;;;;;;2.13;1.67;;;10.50;99.90;;;;;;5013015;28;20289;-87
2023/09/04 04:44:34;;;;;;;5.17;2.00;;;10.50;99.90;;;;;;5013234;28;20321;-87
2023/09/04 04:47:00;;;;;;;1.27;1.17;;;10.50;99.90;;;;;;5013485;28;20210;-87
2023/09/04 04:49:26;;;;;;;4.80;1.50;;;10.40;99.90;;;;;;5028843;28;20190;-87
2023/09/04 04:51:54;;;;;;;1.77;1.30;;;10.20;99.90;;;;;;4997335;28;20246;-87
2023/09/04 04:54:20;;;;;;;7.50;1.93;;;10.30;99.90;;;;;;5030038;28;20218;-88
2023/09/04 04:56:48;;;;;;;1.07;1.00;;;10.30;99.90;;;;;;5029580;28;20271;-87
2023/09/04 04:59:14;;;;;;;2.27;1.80;;;10.40;99.90;;;;;;5013643;28;20229;-87
2023/09/04 05:01:40;;;;;;;5.53;1.17;;;10.40;99.90;;;;;;5013438;28;20244;-88
2023/09/04 05:04:05;;;;;;;21.17;3.03;;;10.50;99.90;;;;;;5028061;28;20291;-87
2023/09/04 05:06:31;;;;;;;2.43;1.30;;;10.60;99.90;;;;;;5029313;28;20225;-87
2023/09/04 05:08:57;;;;;;;25.30;2.33;;;10.60;99.90;;;;;;5026164;28;20242;-87
2023/09/04 05:11:22;;;;;;;1.47;1.30;;;10.60;99.90;;;;;;4993207;28;20226;-87
2023/09/04 05:13:48;;;;;;;1.03;0.93;;;10.60;99.90;;;;;;5010399;28;20206;-87
2023/09/04 05:16:14;;;;;;;1.30;1.10;;;10.70;99.90;;;;;;5020330;28;20222;-87
2023/09/04 05:18:40;;;;;;;1.63;1.53;;;11.00;99.90;;;;;;5009459;28;20699;-87
2023/09/04 05:21:06;;;;;;;1.43;1.30;;;11.50;99.90;;;;;;5013338;28;20558;-87
2023/09/04 05:23:33;;;;;;;2.67;2.43;;;12.40;99.90;;;;;;5030494;28;20214;-87
2023/09/04 05:25:59;;;;;;;3.60;2.37;;;12.50;99.90;;;;;;4997348;28;20226;-87
2023/09/04 05:28:24;;;;;;;2.90;2.10;;;12.10;99.90;;;;;;5030252;28;20546;-87
2023/09/04 05:30:50;;;;;;;2.67;2.03;;;12.20;99.90;;;;;;5012731;28;20215;-87
2023/09/04 05:33:16;;;;;;;3.10;2.63;;;11.80;99.90;;;;;;5012445;28;20206;-87
2023/09/04 05:35:42;;;;;;;4.27;3.23;;;11.70;99.90;;;;;;5029120;28;20230;-87
2023/09/04 05:38:08;;;;;;;3.40;2.47;;;11.80;99.90;;;;;;5012726;28;20221;-87
2023/09/04 05:40:34;;;;;;;7.87;3.60;;;12.00;99.90;;;;;;5012544;28;20851;-87
2023/09/04 05:42:59;;;;;;;3.83;3.30;;;12.20;99.90;;;;;;4996738;28;20229;-89
2023/09/04 05:45:25;;;;;;;4.60;3.63;;;12.60;99.90;;;;;;5012258;28;20708;-89
2023/09/04 05:47:51;;;;;;;5.33;3.90;;;12.90;99.90;;;;;;5039353;28;20229;-91
2023/09/04 05:50:17;;;;;;;4.10;2.93;;;12.70;99.90;;;;;;5014042;28;20218;-90
2023/09/04 05:52:43;;;;;;;5.17;3.60;;;12.60;99.90;;;;;;5012804;28;20207;-90
2023/09/04 05:55:09;;;;;;;5.43;3.47;;;12.60;99.90;;;;;;5013327;28;20230;-90
2023/09/04 05:57:35;;;;;;;5.37;3.23;;;12.90;99.90;;;;;;5011746;28;20318;-89
2023/09/04 06:00:02;;;;;;;5.20;4.50;;;13.50;99.90;;;;;;5012811;28;20313;-88
2023/09/04 06:02:28;;;;;;;10.30;5.47;;;14.50;99.90;;;;;;5012747;28;20217;-89
2023/09/04 06:04:54;;;;;;;16.17;6.47;;;15.60;99.90;;;;;;4996462;28;20187;-88
2023/09/04 06:07:20;;;;;;;16.70;9.03;;;17.30;99.90;;;;;;5029685;28;20261;-88
2023/09/04 06:09:45;;;;;;;19.10;9.53;;;18.90;99.90;;;;;;5012839;28;20242;-89
2023/09/04 06:12:12;;;;;;;10.70;7.27;;;19.70;99.90;;;;;;4996127;28;20271;-89
2023/09/04 06:14:38;;;;;;;9.27;4.73;;;20.40;99.90;;;;;;5025315;28;20584;-90
2023/09/04 06:17:05;;;;;;;4.17;3.33;;;21.20;99.90;;;;;;4991202;28;20294;-89
2023/09/04 06:19:37;;;;;;;3.83;3.43;;;21.90;99.90;;;;;;5008486;28;20194;-89
2023/09/04 06:22:02;;;;;;;5.63;3.03;;;23.10;99.90;;;;;;4990292;28;20698;-89
2023/09/04 06:24:28;;;;;;;3.70;3.10;;;21.90;99.90;;;;;;4991839;28;20227;-86
2023/09/04 06:26:54;;;;;;;7.20;3.70;;;20.40;99.90;;;;;;5002296;28;20247;-86
2023/09/04 06:29:20;;;;;;;3.93;3.17;;;19.40;99.90;;;;;;4990343;28;20530;-87
2023/09/04 06:31:46;;;;;;;8.10;4.17;;;18.70;99.90;;;;;;5007044;28;20219;-86
2023/09/04 06:34:12;;;;;;;4.53;3.03;;;18.10;99.90;;;;;;4990021;28;20231;-87
2023/09/04 06:36:38;;;;;;;5.27;3.63;;;17.90;99.90;;;;;;5016493;28;20220;-86
2023/09/04 06:39:04;;;;;;;4.63;3.33;;;17.80;99.90;;;;;;5004845;28;20715;-87
2023/09/04 06:41:32;;;;;;;3.90;2.80;;;17.40;99.90;;;;;;5006982;28;20700;-86
2023/09/04 06:43:58;;;;;;;3.60;3.10;;;17.30;99.90;;;;;;5007039;28;20557;-88
2023/09/04 06:46:24;;;;;;;3.83;3.43;;;17.10;99.90;;;;;;4990386;28;20781;-87
2023/09/04 06:48:49;;;;;;;4.47;3.37;;;17.20;99.90;;;;;;5024644;28;20211;-87
2023/09/04 06:51:16;;;;;;;7.93;3.43;;;17.30;99.90;;;;;;5008875;28;20280;-87
2023/09/04 06:53:42;;;;;;;6.03;4.10;;;17.70;99.90;;;;;;5009411;28;20301;-86
2023/09/04 06:56:09;;;;;;;4.13;3.73;;;19.40;99.90;;;;;;5026616;28;20253;-86
2023/09/04 06:58:35;;;;;;;5.43;4.00;;;21.40;99.90;;;;;;5009079;28;21190;-87
2023/09/04 07:01:08;;;;;;;9.23;4.23;;;22.90;99.90;;;;;;4994957;28;20197;-87
2023/09/04 07:03:35;;;;;;;6.03;3.17;;;23.40;99.90;;;;;;5015068;28;20210;-85
2023/09/04 07:06:00;;;;;;;4.37;3.33;;;24.00;99.90;;;;;;4990298;28;20544;-84
2023/09/04 07:08:30;;;;;;;4.60;3.67;;;24.40;99.90;;;;;;4988872;28;20245;-85
2023/09/04 07:10:57;;;;;;;6.45;3.80;;;24.60;99.90;;;;;;4993878;28;20227;-85
2023/09/04 07:13:23;;;;;;;4.72;3.30;;;25.40;99.90;;;;;;5026289;28;20179;-86
2023/09/04 07:15:49;;;;;;;3.15;2.83;;;25.70;99.90;;;;;;5024393;28;20553;-85
2023/09/04 07:18:15;;;;;;;5.65;3.60;;;25.50;99.90;;;;;;5009729;28;20214;-86
2023/09/04 07:20:40;;;;;;;5.35;3.40;;;25.80;99.90;;;;;;5014116;28;20534;-86
2023/09/04 07:23:06;;;;;;;3.83;3.13;;;26.30;99.90;;;;;;4990057;28;20231;-84
2023/09/04 07:25:32;;;;;;;3.85;2.75;;;26.90;99.90;;;;;;4999057;28;20184;-86
2023/09/04 07:27:58;;;;;;;3.53;3.20;;;26.90;99.90;;;;;;5008516;28;20262;-86
2023/09/04 07:30:24;;;;;;;4.18;2.72;;;27.30;99.90;;;;;;5008829;28;20241;-86
2023/09/04 07:32:50;;;;;;;3.35;2.97;;;27.80;99.90;;;;;;5009120;28;20444;-86
2023/09/04 07:35:15;;;;;;;4.82;3.08;;;27.80;99.90;;;;;;5009001;28;20302;-86
2023/09/04 07:37:41;;;;;;;4.45;3.05;;;28.50;99.90;;;;;;5008074;28;20198;-86
2023/09/04 07:40:08;;;;;;;3.63;3.15;;;28.50;99.90;;;;;;4993009;28;20236;-86
2023/09/04 07:42:34;;;;;;;4.03;3.08;;;27.70;99.90;;;;;;5008613;28;21220;-87
2023/09/04 07:44:59;;;;;;;3.08;2.75;;;27.40;99.90;;;;;;5009266;28;20273;-87
2023/09/04 07:47:25;;;;;;;2.67;2.47;;;26.90;99.90;;;;;;5025358;28;20599;-86
2023/09/04 07:49:52;;;;;;;3.25;2.58;;;26.30;99.90;;;;;;4992913;28;20226;-87
2023/09/04 07:52:18;;;;;;;3.13;2.83;;;27.20;99.90;;;;;;5025490;28;20194;-86
2023/09/04 07:54:45;;;;;;;3.35;2.78;;;26.60;99.90;;;;;;5008312;28;20259;-87
2023/09/04 07:57:11;;;;;;;2.58;2.38;;;27.80;99.90;;;;;;5024928;28;20298;-83
2023/09/04 07:59:37;;;;;;;4.18;2.75;;;28.60;99.90;;;;;;5024686;28;20305;-87
2023/09/04 08:02:03;;;;;;;3.75;3.00;;;27.90;99.90;;;;;;5008775;28;20207;-86
2023/09/04 08:04:29;;;;;;;3.45;2.58;;;26.70;99.90;;;;;;5009498;28;20190;-86
2023/09/04 08:06:58;;;;;;;5.70;2.83;;;26.30;99.90;;;;;;5008541;28;20305;-86
2023/09/04 08:09:24;;;;;;;2.75;2.50;;;25.80;99.90;;;;;;5008721;28;20240;-85
2023/09/04 08:11:50;;;;;;;3.08;2.38;;;25.10;99.90;;;;;;5025149;28;20297;-86
2023/09/04 08:14:16;;;;;;;3.97;2.33;;;25.40;99.90;;;;;;5007992;28;20280;-86
2023/09/04 08:16:41;;;;;;;3.72;2.58;;;25.60;99.90;;;;;;5024371;28;20191;-87
2023/09/04 08:19:07;;;;;;;3.72;2.53;;;25.60;99.90;;;;;;5008999;28;20723;-87
2023/09/04 08:21:33;;;;;;;4.82;2.35;;;25.50;99.90;;;;;;5008440;28;20226;-87
2023/09/04 08:23:59;;;;;;;4.32;2.42;;;24.60;99.90;;;;;;5009421;28;20230;-87
2023/09/04 08:26:25;;;;;;;4.15;2.42;;;24.60;99.90;;;;;;4992499;28;20306;-86
2023/09/04 08:28:50;;;;;;;3.17;2.50;;;25.40;99.90;;;;;;4992213;28;20190;-86
2023/09/04 08:31:16;;;;;;;4.65;2.55;;;26.10;99.90;;;;;;5008507;28;20266;-86
2023/09/04 08:33:42;;;;;;;2.67;2.47;;;26.80;99.90;;;;;;5004694;28;20226;-87
2023/09/04 08:36:08;;;;;;;3.60;2.60;;;26.20;99.90;;;;;;5004874;28;21457;-87
2023/09/04 08:38:33;;;;;;;2.20;1.98;;;27.00;99.90;;;;;;5004700;28;20219;-87
2023/09/04 08:41:05;;;;;;;2.25;2.05;;;27.10;99.90;;;;;;5019259;28;20211;-87
2023/09/04 08:43:31;;;;;;;5.72;3.55;;;27.10;99.90;;;;;;4996899;28;20240;-87
2023/09/04 08:46:02;;;;;;;4.65;2.35;;;27.00;99.90;;;;;;5004786;28;20194;-88
2023/09/04 08:48:31;;;;;;;2.95;2.58;;;27.40;99.90;;;;;;5004816;28;20265;-88
2023/09/04 08:50:58;;;;;;;5.35;3.55;;;26.40;99.90;;;;;;5005146;28;20217;-87
2023/09/04 08:53:24;;;;;;;3.20;2.35;;;26.10;99.90;;;;;;5005375;28;20208;-86
2023/09/04 08:55:50;;;;;;;5.03;2.45;;;25.80;99.90;;;;;;5004816;28;20261;-87
2023/09/04 08:58:17;;;;;;;1.95;1.73;;;24.40;99.90;;;;;;5005026;28;20883;-86
2023/09/04 09:00:46;;;;;;;2.35;2.15;;;24.30;99.90;;;;;;4996875;28;20264;-86
2023/09/04 09:03:14;;;;;;;4.20;2.10;;;24.20;99.90;;;;;;5005247;28;21079;-86
2023/09/04 09:05:43;;;;;;;2.92;1.98;;;24.20;99.90;;;;;;5020157;28;20216;-86
2023/09/04 09:08:09;;;;;;;3.47;2.63;;;24.60;99.90;;;;;;5006018;28;20239;-86
2023/09/04 09:10:35;;;;;;;3.53;2.45;;;23.90;99.90;;;;;;4997720;28;21445;-86
2023/09/04 09:13:01;;;;;;;2.45;1.73;;;24.10;99.90;;;;;;5013819;28;20187;-88
2023/09/04 09:15:31;;;;;;;3.53;2.40;;;24.40;99.90;;;;;;5003691;28;20211;-87
2023/09/04 09:17:58;;;;;;;2.55;2.35;;;24.90;99.90;;;;;;5005346;28;20710;-86
2023/09/04 09:20:38;;;;;;;2.85;2.50;;;25.30;99.90;;;;;;5005200;28;20679;-86
2023/09/04 09:23:07;;;;;;;3.35;2.22;;;25.40;99.90;;;;;;5005432;28;20772;-86
2023/09/04 09:25:34;;;;;;;3.05;2.30;;;25.90;99.90;;;;;;4997379;28;20187;-86
2023/09/04 09:28:07;;;;;;;3.45;2.33;;;26.60;99.90;;;;;;4991952;28;20590;-86
2023/09/04 09:30:42;;;;;;;4.22;2.40;;;26.10;99.90;;;;;;4991871;28;20215;-85
2023/09/04 09:33:15;;;;;;;3.75;2.47;;;25.70;99.90;;;;;;5018307;28;21380;-85
2023/09/04 09:35:42;;;;;;;3.42;2.10;;;25.10;99.90;;;;;;5012917;28;20371;-86
2023/09/04 09:38:08;;;;;;;2.67;2.20;;;25.70;99.90;;;;;;5028375;28;20586;-86
2023/09/04 09:40:34;;;;;;;2.83;2.33;;;26.80;99.90;;;;;;5028417;28;20194;-86
2023/09/04 09:43:00;;;;;;;4.50;2.78;;;26.80;99.90;;;;;;5028233;28;20190;-86
2023/09/04 09:45:34;;;;;;;2.58;2.28;;;27.10;99.90;;;;;;5011651;28;20214;-86
2023/09/04 09:48:04;;;;;;;2.22;1.88;;;26.00;99.90;;;;;;5010972;28;20718;-86
2023/09/04 09:50:31;;;;;;;2.20;2.00;;;25.80;99.90;;;;;;5028054;28;21061;-86
2023/09/04 09:53:01;;;;;;;2.85;1.80;;;25.60;99.90;;;;;;5028051;28;20218;-87
2023/09/04 09:55:29;;;;;;;2.72;2.05;;;26.40;99.90;;;;;;5029769;28;20186;-86
2023/09/04 09:57:57;;;;;;;2.40;2.15;;;25.60;99.90;;;;;;5027568;28;20238;-86
2023/09/04 10:00:24;;;;;;;2.95;2.58;;;24.70;99.90;;;;;;5028234;28;20211;-87
2023/09/04 10:02:50;;;;;;;4.57;2.83;;;24.30;99.90;;;;;;5027975;28;20642;-86
2023/09/04 10:05:17;;;;;;;2.50;2.20;;;25.20;99.90;;;;;;5011317;28;20285;-86
2023/09/04 10:07:46;;;;;;;2.78;2.30;;;24.60;99.90;;;;;;5010265;28;20242;-87
2023/09/04 10:10:14;;;;;;;2.65;2.05;;;24.40;99.90;;;;;;5042453;28;20305;-86
2023/09/04 10:13:23;;;;;;;2.42;2.10;;;24.90;99.90;;;;;;5011327;28;20694;-87
2023/09/04 10:15:52;;;;;;;2.22;2.03;;;25.70;99.90;;;;;;5027266;28;20233;-86
2023/09/04 10:18:28;;;;;;;2.88;2.33;;;24.40;99.90;;;;;;5028511;28;20223;-86
2023/09/04 10:20:57;;;;;;;2.78;2.22;;;24.60;99.90;;;;;;5027432;28;20276;-87
2023/09/04 10:23:37;;;;;;;3.20;1.92;;;25.10;99.90;;;;;;5023949;28;20277;-86
2023/09/04 10:26:19;;;;;;;2.78;1.88;;;24.60;99.90;;;;;;5008964;28;20284;-87
2023/09/04 10:29:03;;;;;;;2.30;2.10;;;24.40;99.90;;;;;;5007976;28;20176;-86
2023/09/04 10:31:34;;;;;;;2.10;1.90;;;24.20;99.90;;;;;;5007634;28;20188;-85
2023/09/04 10:34:01;;;;;;;3.28;1.95;;;24.80;99.90;;;;;;5007001;28;20207;-86
2023/09/04 10:36:31;;;;;;;2.78;1.95;;;25.00;99.90;;;;;;5006538;28;20211;-87
2023/09/04 10:39:01;;;;;;;2.42;2.05;;;25.30;99.90;;;;;;5022459;28;20226;-86
2023/09/04 10:41:29;;;;;;;3.63;1.80;;;24.80;99.90;;;;;;5007887;28;20298;-85
2023/09/04 10:43:55;;;;;;;2.97;1.63;;;25.20;99.90;;;;;;5025483;28;20310;-87
2023/09/04 10:46:21;;;;;;;2.50;2.30;;;24.80;99.90;;;;;;5011677;28;20289;-87
2023/09/04 10:48:49;;;;;;;3.08;2.08;;;24.70;99.90;;;;;;4993552;28;20211;-86
2023/09/04 10:51:37;;;;;;;1.90;1.67;;;25.20;99.90;;;;;;5026680;28;20206;-87
2023/09/04 10:54:29;;;;;;;2.47;2.13;;;25.20;99.90;;;;;;5026138;28;20689;-86
2023/09/04 10:56:56;;;;;;;2.25;1.95;;;25.60;99.90;;;;;;5007048;28;20218;-87
2023/09/04 10:59:22;;;;;;;2.28;1.60;;;26.40;99.90;;;;;;5026885;28;20218;-86
2023/09/04 11:01:48;;;;;;;2.85;1.92;;;26.60;99.90;;;;;;5010883;28;20183;-85
2023/09/04 11:04:29;;;;;;;4.05;1.83;;;26.40;99.90;;;;;;5027058;28;20194;-86
2023/09/04 11:07:20;;;;;;;3.17;2.30;;;25.80;99.90;;;;;;5022161;28;20300;-85
2023/09/04 11:09:46;;;;;;;2.20;2.00;;;25.40;99.90;;;;;;5006413;28;20238;-86
2023/09/04 11:12:19;;;;;;;2.60;2.08;;;25.40;99.90;;;;;;5005944;28;20211;-84
2023/09/04 11:14:47;;;;;;;3.63;2.05;;;25.30;99.90;;;;;;4982436;28;20255;-87
2023/09/04 11:17:16;;;;;;;2.20;2.00;;;25.50;99.90;;;;;;5006323;28;20277;-87
2023/09/04 11:19:43;;;;;;;1.88;1.58;;;24.80;99.90;;;;;;5006707;28;21138;-85
2023/09/04 11:22:18;;;;;;;3.40;1.85;;;25.20;99.90;;;;;;5006049;28;20267;-86
2023/09/04 11:24:45;;;;;;;2.30;2.05;;;25.50;99.90;;;;;;5006178;28;20207;-84
2023/09/04 11:27:11;;;;;;;2.05;1.67;;;25.30;99.90;;;;;;5021405;28;20606;-85
2023/09/04 11:29:37;;;;;;;2.72;1.70;;;24.50;99.90;;;;;;5005847;28;20303;-85
2023/09/04 11:32:05;;;;;;;3.08;1.70;;;24.60;99.90;;;;;;5002302;28;20207;-86
2023/09/04 11:34:31;;;;;;;3.40;2.15;;;24.80;99.90;;;;;;5009471;28;20202;-86
2023/09/04 11:36:57;;;;;;;2.80;1.80;;;24.50;99.90;;;;;;5006400;28;20748;-86
2023/09/04 11:39:23;;;;;;;2.97;2.45;;;24.40;99.90;;;;;;5008090;28;20305;-87
2023/09/04 11:41:50;;;;;;;2.63;2.05;;;24.40;99.90;;;;;;4992361;28;20228;-86
2023/09/04 11:44:15;;;;;;;4.10;2.20;;;24.20;99.90;;;;;;5006442;28;20249;-86
2023/09/04 11:46:43;;;;;;;2.50;1.73;;;24.70;99.90;;;;;;5007533;28;20199;-87
2023/09/04 11:49:09;;;;;;;1.98;1.80;;;25.10;99.90;;;;;;5024259;28;20644;-85
2023/09/04 11:51:36;;;;;;;5.57;2.33;;;24.70;99.90;;;;;;5008914;28;20416;-87
2023/09/04 11:54:06;;;;;;;2.03;1.80;;;24.80;99.90;;;;;;5025172;28;20567;-86
2023/09/04 11:56:32;;;;;;;2.63;2.10;;;24.70;99.90;;;;;;5025466;28;20214;-85
2023/09/04 11:58:58;;;;;;;1.77;1.67;;;24.40;99.90;;;;;;5009072;28;20624;-86
2023/09/04 12:01:24;;;;;;;2.35;1.95;;;24.80;99.90;;;;;;5009515;28;20179;-85
2023/09/04 12:03:53;;;;;;;2.17;1.70;;;24.70;99.90;;;;;;5008773;28;20218;-85
2023/09/04 12:06:23;;;;;;;4.72;1.80;;;25.10;99.90;;;;;;5025308;28;20669;-85
2023/09/04 12:08:49;;;;;;;1.63;1.52;;;24.90;99.90;;;;;;5041149;28;20246;-86
2023/09/04 12:11:16;;;;;;;2.53;1.95;;;24.80;99.90;;;;;;5009024;28;20268;-85
2023/09/04 12:13:42;;;;;;;1.42;1.33;;;24.40;99.90;;;;;;5009241;28;20328;-84
2023/09/04 12:16:09;;;;;;;3.03;1.48;;;24.20;99.90;;;;;;4993272;28;20268;-84
2023/09/04 12:18:38;;;;;;;2.50;2.00;;;24.40;99.90;;;;;;5025289;28;20203;-86
2023/09/04 12:21:11;;;;;;;2.05;1.67;;;24.90;99.90;;;;;;5007925;28;20221;-85
2023/09/04 12:23:47;;;;;;;2.50;2.30;;;24.90;99.90;;;;;;5008668;28;20561;-86
2023/09/04 12:26:15;;;;;;;3.30;1.77;;;24.80;99.90;;;;;;5024447;28;20395;-85
2023/09/04 12:28:42;;;;;;;1.85;1.75;;;24.70;99.90;;;;;;5023826;28;20914;-86
2023/09/04 12:31:11;;;;;;;1.70;1.60;;;24.50;99.90;;;;;;5009023;28;20175;-86
2023/09/04 12:33:42;;;;;;;2.65;1.85;;;24.90;99.90;;;;;;5024193;28;20214;-86
2023/09/04 12:36:09;;;;;;;1.65;1.50;;;25.10;99.90;;;;;;5004990;28;20243;-85
2023/09/04 12:38:36;;;;;;;3.95;1.55;;;24.70;99.90;;;;;;5014175;28;20337;-85
2023/09/04 12:41:03;;;;;;;1.95;1.58;;;24.60;99.90;;;;;;5021048;28;20214;-86
2023/09/04 12:43:29;;;;;;;2.45;1.85;;;24.80;99.90;;;;;;5005918;28;20176;-86
2023/09/04 12:45:54;;;;;;;1.52;1.42;;;24.80;99.90;;;;;;5004045;28;20210;-85
2023/09/04 12:48:22;;;;;;;3.63;1.90;;;24.90;99.90;;;;;;4981362;28;20588;-85
2023/09/04 12:50:48;;;;;;;1.83;1.60;;;24.60;99.90;;;;;;5003963;28;20218;-86
2023/09/04 12:53:14;;;;;;;1.45;1.35;;;24.60;99.90;;;;;;5005121;28;20218;-86